Terminal Aerodrome Forecast
Issued by NWS

Home | Current Version | Previous Version | Text Only | Print | Product List | Glossary On
Versions: 1 2 3 4 5 6 7 8 9 10 11 12
053
FTUS42 KTBW 111731
TAFPGD
TAF
KPGD 111731Z 1118/1218 05006KT P6SM SKC
     FM112000 26006KT P6SM SKC
     FM120100 00000KT P6SM SKC
     FM121600 VRB04KT P6SM SKC=

USA.gov is the U.S. government's official web portal to all federal, state and local government web resources and services.